ETNW

Wunstorf Airport

Germany
METAR ETNW 122035Z 04008KT 9999 -RA BKN023 03/02 Q1026 WHT FCST CANCEL
Observed Flight Rules
Dec-12 @ 20:35 UTC (33 minutes ago) Marginal Visual Flight Rules
Wind Visibility Clouds Conditions
40° at 8 knots 10,000+ meters
  • Broken at 2,300' AGL
  • Light Rain
Temperatures Readings
Current 3°C / 37°F
Dewpoint 2°C / 36°F
Humidity 93%
Altimeter 30.3" Hg
Pressure 1026 hPa
Elevation 70
METAR ETNW 122035Z 04008KT 9999 -RA BKN023 03/02 Q1026 WHT FCST CANCEL
Observed Flight Rules
Dec-12 @ 20:35 UTC
(33 minutes ago)
MVFR
Wind Visibility
40° at 8 knots 10,000+ meters
Clouds
  • Broken at 2,300' AGL
Conditions
  • Light Rain
Temperature Dewpoint
3°C / 37°F 2°C / 36°F
Humidity Altimeter Pressure
93% 30.3" Hg 1026 hPa